UAL850 KLAX-PHNL
Flight info
| Callsign | UAL850 |
|---|---|
| Flight time | N/A |
| Altitude | 36000 |
| Route | SUMMR2 DINTY DUETS R576 DADIE/N0471F380 R576 DENNS MAGGI3 |
| Aircraft | B77W/H-SDE1E2E3FGHIJ2J3J4J5M1RWXY/LB1D1 |
Departure
| Time | 2026-05-06 21:50 |
|---|---|
| Airport | Los Angeles International Airport (KLAX) |
Arrival
| Time | N/A |
|---|---|
| Airport | Daniel K. Inouye International Airport (PHNL) |
| Time | Latitude | Longitude | Altitude | Speed | Heading |
|---|---|---|---|---|---|
| 2026-05-06 21:27 | 33.94024 | -118.40923 | 132 ft | 0 kts | 263° |
| 2026-05-06 21:38 | 33.94024 | -118.40922 | 133 ft | 1 kts | 263° |
| 2026-05-06 21:38 | 33.94026 | -118.40903 | 133 ft | 2 kts | 264° |
| 2026-05-06 21:38 | 33.94028 | -118.40883 | 133 ft | 1 kts | 263° |
| 2026-05-06 21:39 | 33.94030 | -118.40865 | 133 ft | 2 kts | 250° |
| 2026-05-06 21:39 | 33.94040 | -118.40848 | 132 ft | 2 kts | 223° |
| 2026-05-06 21:39 | 33.94054 | -118.40836 | 132 ft | 2 kts | 200° |
| 2026-05-06 21:39 | 33.94071 | -118.40833 | 132 ft | 1 kts | 176° |
| 2026-05-06 21:40 | 33.94077 | -118.40833 | 132 ft | 0 kts | 173° |
| 2026-05-06 21:41 | 33.94059 | -118.40830 | 132 ft | 5 kts | 173° |
| 2026-05-06 21:42 | 33.94011 | -118.40823 | 133 ft | 6 kts | 173° |
| 2026-05-06 21:42 | 33.93962 | -118.40816 | 133 ft | 7 kts | 173° |
| 2026-05-06 21:42 | 33.93906 | -118.40793 | 133 ft | 9 kts | 149° |
| 2026-05-06 21:42 | 33.93851 | -118.40741 | 133 ft | 10 kts | 137° |
| 2026-05-06 21:43 | 33.93821 | -118.40669 | 133 ft | 9 kts | 95° |
| 2026-05-06 21:43 | 33.93820 | -118.40585 | 132 ft | 10 kts | 84° |
| 2026-05-06 21:43 | 33.93829 | -118.40488 | 130 ft | 12 kts | 84° |
| 2026-05-06 21:43 | 33.93840 | -118.40384 | 128 ft | 13 kts | 82° |
| 2026-05-06 21:44 | 33.93852 | -118.40271 | 127 ft | 13 kts | 83° |
| 2026-05-06 21:44 | 33.93863 | -118.40160 | 127 ft | 13 kts | 83° |
| 2026-05-06 21:44 | 33.93876 | -118.40044 | 124 ft | 14 kts | 83° |
| 2026-05-06 21:44 | 33.93889 | -118.39912 | 122 ft | 16 kts | 83° |
| 2026-05-06 21:45 | 33.93905 | -118.39756 | 119 ft | 18 kts | 83° |
| 2026-05-06 21:45 | 33.93921 | -118.39597 | 117 ft | 18 kts | 83° |
| 2026-05-06 21:45 | 33.93937 | -118.39444 | 116 ft | 18 kts | 83° |
| 2026-05-06 21:45 | 33.93953 | -118.39291 | 114 ft | 18 kts | 83° |
| 2026-05-06 21:46 | 33.93967 | -118.39139 | 113 ft | 17 kts | 83° |
| 2026-05-06 21:46 | 33.93983 | -118.38992 | 111 ft | 18 kts | 83° |
| 2026-05-06 21:46 | 33.93998 | -118.38842 | 111 ft | 17 kts | 83° |
| 2026-05-06 21:46 | 33.94013 | -118.38697 | 111 ft | 17 kts | 83° |
| 2026-05-06 21:47 | 33.94027 | -118.38558 | 111 ft | 16 kts | 83° |
| 2026-05-06 21:47 | 33.94041 | -118.38419 | 109 ft | 17 kts | 83° |
| 2026-05-06 21:47 | 33.94056 | -118.38274 | 108 ft | 17 kts | 83° |
| 2026-05-06 21:47 | 33.94071 | -118.38135 | 107 ft | 15 kts | 83° |
| 2026-05-06 21:48 | 33.94079 | -118.38060 | 107 ft | 0 kts | 93° |
| 2026-05-06 21:48 | 33.94079 | -118.38059 | 108 ft | 0 kts | 97° |
| 2026-05-06 21:48 | 33.94072 | -118.38047 | 108 ft | 4 kts | 136° |
| 2026-05-06 21:49 | 33.94036 | -118.38016 | 108 ft | 6 kts | 156° |
| 2026-05-06 21:49 | 33.94001 | -118.38013 | 107 ft | 3 kts | 203° |
| 2026-05-06 21:49 | 33.93986 | -118.38032 | 107 ft | 2 kts | 248° |
| 2026-05-06 21:49 | 33.93981 | -118.38065 | 107 ft | 15 kts | 259° |
| 2026-05-06 21:50 | 33.93917 | -118.38673 | 111 ft | 119 kts | 263° |
| 2026-05-06 21:50 | 33.93765 | -118.40150 | 384 ft | 188 kts | 262° |
| 2026-05-06 21:50 | 33.93595 | -118.41694 | 1679 ft | 187 kts | 263° |
| 2026-05-06 21:50 | 33.93446 | -118.43176 | 2539 ft | 186 kts | 264° |
| 2026-05-06 21:51 | 33.93282 | -118.44824 | 2929 ft | 214 kts | 264° |
| 2026-05-06 21:51 | 33.93098 | -118.46731 | 3021 ft | 246 kts | 265° |
| 2026-05-06 21:51 | 33.92931 | -118.48807 | 3977 ft | 250 kts | 266° |
| 2026-05-06 21:51 | 33.92762 | -118.50915 | 4723 ft | 265 kts | 266° |
| 2026-05-06 21:52 | 33.92580 | -118.53144 | 5615 ft | 274 kts | 267° |
| 2026-05-06 21:52 | 33.92391 | -118.55433 | 6597 ft | 279 kts | 267° |
| 2026-05-06 21:52 | 33.92198 | -118.57766 | 7482 ft | 286 kts | 267° |
| 2026-05-06 21:52 | 33.92001 | -118.60139 | 8377 ft | 292 kts | 268° |
| 2026-05-06 21:53 | 33.91809 | -118.62588 | 9212 ft | 299 kts | 270° |
| 2026-05-06 21:53 | 33.91757 | -118.65088 | 10098 ft | 304 kts | 273° |
| 2026-05-06 21:53 | 33.91754 | -118.67687 | 10802 ft | 317 kts | 273° |
| 2026-05-06 21:53 | 33.91752 | -118.70389 | 11360 ft | 335 kts | 273° |
| 2026-05-06 21:54 | 33.91744 | -118.73280 | 11950 ft | 352 kts | 273° |
| 2026-05-06 21:54 | 33.91733 | -118.76266 | 12556 ft | 370 kts | 273° |
| 2026-05-06 21:54 | 33.91720 | -118.79449 | 13160 ft | 386 kts | 272° |
| 2026-05-06 21:54 | 33.91705 | -118.82709 | 13866 ft | 400 kts | 272° |
| 2026-05-06 21:55 | 33.91740 | -118.86123 | 14659 ft | 410 kts | 275° |
| 2026-05-06 21:55 | 33.91853 | -118.89571 | 15576 ft | 414 kts | 275° |
| 2026-05-06 21:55 | 33.91963 | -118.92985 | 16550 ft | 417 kts | 276° |
| 2026-05-06 21:55 | 33.92075 | -118.96492 | 17438 ft | 422 kts | 276° |
| 2026-05-06 21:56 | 33.92462 | -119.00005 | 18192 ft | 425 kts | 287° |
| 2026-05-06 21:56 | 33.93362 | -119.03360 | 18986 ft | 426 kts | 297° |
| 2026-05-06 21:56 | 33.94737 | -119.06493 | 19830 ft | 426 kts | 305° |
| 2026-05-06 21:56 | 33.96296 | -119.09536 | 20741 ft | 428 kts | 306° |
| 2026-05-06 21:57 | 33.97848 | -119.12540 | 21613 ft | 430 kts | 306° |
| 2026-05-06 21:57 | 33.99456 | -119.15614 | 22371 ft | 434 kts | 309° |
| 2026-05-06 21:57 | 34.01359 | -119.18457 | 23008 ft | 436 kts | 318° |
| 2026-05-06 21:57 | 34.03610 | -119.20869 | 23676 ft | 437 kts | 327° |
| 2026-05-06 21:58 | 34.06068 | -119.23017 | 24436 ft | 440 kts | 329° |
| 2026-05-06 21:58 | 34.08582 | -119.25172 | 25271 ft | 441 kts | 329° |
| 2026-05-06 21:58 | 34.11090 | -119.27322 | 26010 ft | 445 kts | 329° |
| 2026-05-06 21:58 | 34.13668 | -119.29535 | 26710 ft | 450 kts | 329° |
| 2026-05-06 21:59 | 34.16251 | -119.31756 | 27422 ft | 454 kts | 329° |
| 2026-05-06 21:59 | 34.18799 | -119.33950 | 28097 ft | 458 kts | 329° |
| 2026-05-06 21:59 | 34.21415 | -119.36204 | 28730 ft | 463 kts | 329° |
| 2026-05-06 21:59 | 34.24073 | -119.38498 | 29331 ft | 468 kts | 329° |
| 2026-05-06 22:00 | 34.26759 | -119.40818 | 30094 ft | 469 kts | 329° |
| 2026-05-06 22:00 | 34.29399 | -119.43102 | 30995 ft | 466 kts | 329° |
| 2026-05-06 22:00 | 34.32013 | -119.45399 | 31889 ft | 463 kts | 327° |
| 2026-05-06 22:00 | 34.34388 | -119.48015 | 32681 ft | 465 kts | 318° |
| 2026-05-06 22:01 | 34.36421 | -119.51032 | 33318 ft | 470 kts | 310° |
| 2026-05-06 22:01 | 34.38096 | -119.54463 | 33861 ft | 478 kts | 301° |
| 2026-05-06 22:01 | 34.39333 | -119.58224 | 34406 ft | 485 kts | 292° |
| 2026-05-06 22:01 | 34.40071 | -119.62233 | 35040 ft | 489 kts | 282° |
| 2026-05-06 22:02 | 34.40269 | -119.66320 | 35741 ft | 492 kts | 272° |
| 2026-05-06 22:02 | 34.40037 | -119.70503 | 36109 ft | 497 kts | 269° |
| 2026-05-06 22:02 | 34.39399 | -119.78855 | 36102 ft | 495 kts | 269° |
| 2026-05-06 22:03 | 34.38775 | -119.87154 | 36093 ft | 495 kts | 269° |
| 2026-05-06 22:03 | 34.38165 | -119.95388 | 36095 ft | 494 kts | 269° |
| 2026-05-06 22:04 | 34.37555 | -120.03666 | 36090 ft | 493 kts | 269° |
| 2026-05-06 22:04 | 34.36950 | -120.11887 | 36086 ft | 495 kts | 269° |
| 2026-05-06 22:05 | 34.36335 | -120.20175 | 36085 ft | 494 kts | 269° |
| 2026-05-06 22:05 | 34.35718 | -120.28433 | 36085 ft | 495 kts | 269° |
| 2026-05-06 22:06 | 34.35085 | -120.36839 | 36091 ft | 495 kts | 269° |
| 2026-05-06 22:06 | 34.34251 | -120.45079 | 36092 ft | 498 kts | 260° |
| 2026-05-06 22:07 | 34.31800 | -120.52988 | 36104 ft | 503 kts | 248° |
| 2026-05-06 22:07 | 34.28793 | -120.60648 | 36105 ft | 503 kts | 247° |
| 2026-05-06 22:08 | 34.25777 | -120.68282 | 36105 ft | 504 kts | 246° |
| 2026-05-06 22:08 | 34.22763 | -120.75886 | 36112 ft | 505 kts | 246° |
| 2026-05-06 22:09 | 34.19719 | -120.83545 | 36117 ft | 504 kts | 246° |
| 2026-05-06 22:09 | 34.16684 | -120.91165 | 36111 ft | 505 kts | 246° |